createdAt,value
2022-07-26T00:00:01.748Z,65.45
2022-07-26T00:01:01.809Z,65.66
2022-07-26T00:02:01.784Z,65.55
2022-07-26T00:03:01.798Z,65.55
2022-07-26T00:04:01.695Z,65.95
2022-07-26T00:05:01.693Z,65.66
2022-07-26T00:06:01.653Z,65.78
2022-07-26T00:07:01.630Z,66.09
2022-07-26T00:08:01.642Z,65.69
2022-07-26T00:09:01.620Z,66.19
2022-07-26T00:10:01.601Z,65.69
2022-07-26T00:11:01.600Z,65.99
2022-07-26T00:12:02.590Z,66.39
2022-07-26T00:13:01.561Z,65.99
2022-07-26T00:14:01.553Z,66.49
2022-07-26T00:15:01.555Z,65.99
2022-07-26T00:16:01.549Z,65.78
2022-07-26T00:17:01.512Z,66.39
2022-07-26T00:18:01.504Z,66.39
2022-07-26T00:19:01.494Z,66.69
2022-07-26T00:20:01.491Z,66.99
2022-07-26T00:21:01.451Z,66.49
2022-07-26T00:22:01.440Z,67.19
2022-07-26T00:23:01.442Z,66.89
2022-07-26T00:24:01.411Z,66.78
2022-07-26T00:25:01.411Z,66.92
2022-07-26T00:26:01.402Z,66.52
2022-07-26T00:27:01.392Z,66.62
2022-07-26T00:28:01.368Z,66.72
2022-07-26T00:29:01.364Z,66.72
2022-07-26T00:30:01.371Z,66.82
2022-07-26T00:31:01.413Z,66.92
2022-07-26T00:32:01.352Z,66.95
2022-07-26T00:33:01.300Z,66.95
2022-07-26T00:34:01.302Z,67.35
2022-07-26T00:35:01.302Z,67.45
2022-07-26T00:36:01.248Z,67.76
2022-07-26T00:37:01.247Z,67.55
2022-07-26T00:38:01.229Z,67.76
2022-07-26T00:39:01.218Z,67.65
2022-07-26T00:40:01.217Z,67.85
2022-07-26T00:41:01.225Z,68.15
2022-07-26T00:42:01.178Z,68.46
2022-07-26T00:43:01.184Z,68.46
2022-07-26T00:44:01.163Z,68.05
2022-07-26T00:45:01.167Z,68.15
2022-07-26T00:46:01.241Z,68.35
2022-07-26T00:47:01.142Z,68.26
2022-07-26T00:48:01.107Z,68.46
2022-07-26T00:49:01.133Z,68.65
2022-07-26T00:50:01.102Z,67.85
2022-07-26T00:51:01.083Z,68.15
2022-07-26T00:52:01.048Z,68.26
2022-07-26T00:53:01.051Z,68.46
2022-07-26T00:54:01.039Z,68.55
2022-07-26T00:55:01.045Z,68.55
2022-07-26T00:56:00.997Z,68.35
2022-07-26T00:57:01.011Z,68.65
2022-07-26T00:58:00.980Z,68.76
2022-07-26T00:59:00.967Z,68.76
2022-07-26T01:00:00.949Z,68.85
2022-07-26T01:01:01.092Z,68.55
2022-07-26T01:02:01.070Z,68.79
2022-07-26T01:03:00.940Z,69.09
2022-07-26T01:04:00.886Z,68.99
2022-07-26T01:05:00.923Z,69.19
2022-07-26T01:06:00.868Z,69.29
2022-07-26T01:07:00.871Z,69.19
2022-07-26T01:08:00.850Z,69.79
2022-07-26T01:09:00.828Z,69.59
2022-07-26T01:10:00.827Z,69.89
2022-07-26T01:11:00.822Z,69.99
2022-07-26T01:12:00.792Z,69.69
2022-07-26T01:13:00.803Z,69.49
2022-07-26T01:14:00.759Z,69.69
2022-07-26T01:15:00.776Z,70.29
2022-07-26T01:16:00.779Z,69.79
2022-07-26T01:17:00.726Z,70.09
2022-07-26T01:18:00.714Z,69.79
2022-07-26T01:19:00.752Z,70.09
2022-07-26T01:20:00.691Z,70.29
2022-07-26T01:21:00.700Z,70.12
2022-07-26T01:22:00.670Z,70.32
2022-07-26T01:23:00.649Z,70.12
2022-07-26T01:24:00.653Z,70.63
2022-07-26T01:25:00.634Z,69.92
2022-07-26T01:26:00.637Z,70.32
2022-07-26T01:27:00.596Z,70.12
2022-07-26T01:28:00.587Z,70.43
2022-07-26T01:29:00.591Z,70.43
2022-07-26T01:30:00.563Z,70.12
2022-07-26T01:31:00.592Z,70.53
2022-07-26T01:32:00.551Z,70.23
2022-07-26T01:33:00.515Z,70.93
2022-07-26T01:34:01.512Z,70.32
2022-07-26T01:35:00.489Z,70.83
2022-07-26T01:36:00.501Z,70.73
2022-07-26T01:37:00.483Z,70.53
2022-07-26T01:38:00.439Z,70.73
2022-07-26T01:39:00.447Z,70.63
2022-07-26T01:40:00.442Z,70.76
2022-07-26T01:41:00.425Z,71.06
2022-07-26T01:42:00.398Z,71.26
2022-07-26T01:43:00.405Z,71.16
2022-07-26T01:44:00.389Z,71.26
2022-07-26T01:45:00.372Z,71.16
2022-07-26T01:46:00.409Z,71.16
2022-07-26T01:47:00.350Z,70.86
2022-07-26T01:48:00.330Z,70.96
2022-07-26T01:49:00.435Z,71.26
2022-07-26T01:50:00.287Z,71.06
2022-07-26T01:51:00.311Z,71.36
2022-07-26T01:52:00.280Z,71.47
2022-07-26T01:53:00.258Z,71.56
2022-07-26T01:54:00.260Z,71.70
2022-07-26T01:55:00.225Z,71.80
2022-07-26T01:56:00.241Z,71.90
2022-07-26T01:57:00.219Z,71.90
2022-07-26T01:58:00.199Z,72.10
2022-07-26T01:59:00.189Z,72.30
2022-07-26T02:00:00.190Z,71.90
2022-07-26T02:01:00.167Z,71.70
2022-07-26T02:02:00.269Z,72.10
2022-07-26T02:03:00.228Z,72.40
2022-07-26T02:04:00.109Z,72.50
2022-07-26T02:05:00.115Z,72.80
2022-07-26T02:06:00.110Z,72.90
2022-07-26T02:07:00.101Z,73.24
2022-07-26T02:08:00.145Z,73.24
2022-07-26T02:09:00.050Z,73.44
2022-07-26T02:10:00.050Z,73.44
2022-07-26T02:11:00.049Z,73.64
2022-07-26T02:12:00.005Z,73.44
2022-07-26T02:12:59.998Z,73.74
2022-07-26T02:13:59.983Z,74.04
2022-07-26T02:14:59.973Z,73.94
2022-07-26T02:16:00.033Z,73.64
2022-07-26T02:17:00.274Z,73.91
2022-07-26T02:17:59.937Z,73.91
2022-07-26T02:18:59.937Z,73.91
2022-07-26T02:19:59.917Z,73.81
2022-07-26T02:20:59.938Z,73.71
2022-07-26T02:21:59.884Z,73.61
2022-07-26T02:22:59.873Z,73.91
2022-07-26T02:23:59.877Z,74.04
2022-07-26T02:25:04.764Z,73.94
2022-07-26T02:26:00.849Z,74.55
2022-07-26T02:26:59.817Z,74.74
2022-07-26T02:27:59.796Z,75.18
2022-07-26T02:28:59.786Z,75.25
2022-07-26T02:29:59.789Z,74.85
2022-07-26T02:30:59.837Z,74.85
2022-07-26T02:31:59.746Z,74.55
2022-07-26T02:32:59.750Z,74.74
2022-07-26T02:33:59.750Z,74.85
2022-07-26T02:34:59.729Z,74.74
2022-07-26T02:35:59.717Z,74.85
2022-07-26T02:36:59.696Z,74.95
2022-07-26T02:37:59.690Z,74.85
2022-07-26T02:38:59.677Z,74.55
2022-07-26T02:39:59.657Z,74.65
2022-07-26T02:40:59.656Z,74.74
2022-07-26T02:41:59.653Z,74.85
2022-07-26T02:42:59.628Z,74.65
2022-07-26T02:43:59.605Z,74.85
2022-07-26T02:44:59.592Z,74.74
2022-07-26T02:46:01.908Z,74.65
2022-07-26T02:46:59.738Z,74.74
2022-07-26T02:47:59.580Z,74.85
2022-07-26T02:48:59.617Z,74.65
2022-07-26T02:49:59.532Z,74.65
2022-07-26T02:50:59.528Z,74.85
2022-07-26T02:51:59.506Z,74.74
2022-07-26T02:52:59.519Z,75.05
2022-07-26T02:53:59.496Z,75.25
2022-07-26T02:54:59.486Z,75.05
2022-07-26T02:55:59.479Z,75.05
2022-07-26T02:56:59.439Z,75.15
2022-07-26T02:57:59.434Z,75.45
2022-07-26T02:58:59.436Z,75.25
2022-07-26T02:59:59.396Z,75.25
2022-07-26T03:00:59.425Z,75.05
2022-07-26T03:01:59.433Z,75.35
2022-07-26T03:02:59.411Z,75.45
2022-07-26T03:03:59.357Z,75.49
2022-07-26T03:04:59.343Z,75.45
2022-07-26T03:05:59.369Z,75.55
2022-07-26T03:06:59.323Z,75.65
2022-07-26T03:07:59.302Z,75.55
2022-07-26T03:08:59.294Z,75.75
2022-07-26T03:09:59.298Z,75.68
2022-07-26T03:10:59.296Z,75.89
2022-07-26T03:11:59.252Z,75.89
2022-07-26T03:12:59.261Z,75.99
2022-07-26T03:13:59.224Z,76.09
2022-07-26T03:14:59.243Z,76.09
2022-07-26T03:15:59.299Z,75.89
2022-07-26T03:16:59.215Z,76.29
2022-07-26T03:17:59.175Z,76.39
2022-07-26T03:18:59.164Z,76.09
2022-07-26T03:19:59.163Z,76.09
2022-07-26T03:20:59.149Z,75.75
2022-07-26T03:21:59.156Z,75.65
2022-07-26T03:22:59.126Z,75.85
2022-07-26T03:23:59.114Z,75.95
2022-07-26T03:24:59.108Z,75.95
2022-07-26T03:25:59.087Z,75.95
2022-07-26T03:26:59.098Z,76.35
2022-07-26T03:27:59.064Z,76.15
2022-07-26T03:28:59.044Z,76.05
2022-07-26T03:29:59.041Z,75.65
2022-07-26T03:30:59.077Z,75.75
2022-07-26T03:31:59.026Z,75.55
2022-07-26T03:32:58.986Z,75.85
2022-07-26T03:34:03.137Z,75.55
2022-07-26T03:34:58.962Z,75.55
2022-07-26T03:35:58.944Z,75.65
2022-07-26T03:36:58.958Z,75.65
2022-07-26T03:37:58.912Z,75.95
2022-07-26T03:38:58.926Z,75.95
2022-07-26T03:39:58.904Z,75.95
2022-07-26T03:40:58.886Z,75.75
2022-07-26T03:41:58.897Z,75.95
2022-07-26T03:42:58.862Z,75.95
2022-07-26T03:43:58.840Z,76.15
2022-07-26T03:44:58.843Z,75.85
2022-07-26T03:45:58.893Z,75.95
2022-07-26T03:46:58.855Z,75.95
2022-07-26T03:47:58.815Z,75.75
2022-07-26T03:48:58.858Z,75.85
2022-07-26T03:49:58.798Z,75.95
2022-07-26T03:50:58.767Z,76.05
2022-07-26T03:51:58.755Z,76.35
2022-07-26T03:52:58.764Z,76.45
2022-07-26T03:53:58.711Z,76.45
2022-07-26T03:54:58.727Z,76.56
2022-07-26T03:55:58.705Z,76.45
2022-07-26T03:56:58.704Z,76.65
2022-07-26T03:57:58.708Z,76.45
2022-07-26T03:58:58.666Z,76.76
2022-07-26T03:59:58.664Z,76.56
2022-07-26T04:00:58.648Z,76.56
2022-07-26T04:01:58.697Z,76.86
2022-07-26T04:02:58.706Z,76.96
2022-07-26T04:03:58.602Z,76.86
2022-07-26T04:04:58.592Z,76.96
2022-07-26T04:05:58.585Z,77.06
2022-07-26T04:06:58.564Z,76.56
2022-07-26T04:07:58.560Z,76.96
2022-07-26T04:08:58.545Z,76.86
2022-07-26T04:09:58.537Z,76.86
2022-07-26T04:10:58.515Z,76.96
2022-07-26T04:11:58.506Z,77.09
2022-07-26T04:12:58.497Z,77.09
2022-07-26T04:13:58.475Z,77.70
2022-07-26T04:14:58.473Z,77.76
2022-07-26T04:15:58.464Z,77.06
2022-07-26T04:16:58.469Z,77.06
2022-07-26T04:17:58.433Z,77.36
2022-07-26T04:18:58.403Z,77.56
2022-07-26T04:19:58.408Z,77.26
2022-07-26T04:20:58.389Z,77.26
2022-07-26T04:21:58.371Z,77.36
2022-07-26T04:22:58.364Z,76.92
2022-07-26T04:23:58.374Z,77.12
2022-07-26T04:24:58.323Z,76.92
2022-07-26T04:25:58.325Z,76.92
2022-07-26T04:26:58.316Z,77.02
2022-07-26T04:27:58.303Z,77.02
2022-07-26T04:28:58.299Z,76.82
2022-07-26T04:29:58.262Z,77.16
2022-07-26T04:30:58.295Z,77.36
2022-07-26T04:31:58.260Z,77.46
2022-07-26T04:32:58.221Z,77.46
2022-07-26T04:33:58.230Z,77.46
2022-07-26T04:34:58.205Z,77.16
2022-07-26T04:35:58.194Z,77.36
2022-07-26T04:36:58.195Z,77.66
2022-07-26T04:37:58.172Z,77.66
2022-07-26T04:38:58.158Z,77.56
2022-07-26T04:39:58.151Z,77.32
2022-07-26T04:40:58.154Z,77.52
2022-07-26T04:41:58.123Z,77.66
2022-07-26T04:42:58.102Z,77.86
2022-07-26T04:43:58.112Z,77.76
2022-07-26T04:44:58.083Z,78.06
2022-07-26T04:45:58.149Z,77.72
2022-07-26T04:46:58.063Z,77.72
2022-07-26T04:47:58.043Z,77.72
2022-07-26T04:48:58.095Z,77.62
2022-07-26T04:49:58.038Z,77.32
2022-07-26T04:50:57.999Z,77.22
2022-07-26T04:51:59.513Z,77.52
2022-07-26T04:52:57.982Z,77.52
2022-07-26T04:53:57.990Z,77.32
2022-07-26T04:54:57.940Z,77.52
2022-07-26T04:55:57.944Z,77.92
2022-07-26T04:56:57.945Z,78.03
2022-07-26T04:57:57.921Z,78.12
2022-07-26T04:58:57.922Z,78.03
2022-07-26T05:00:16.798Z,78.03
2022-07-26T05:01:14.435Z,77.92
2022-07-26T05:01:58.926Z,77.83
2022-07-26T05:02:57.980Z,77.92
2022-07-26T05:03:57.858Z,77.92
2022-07-26T05:04:57.817Z,77.92
2022-07-26T05:05:57.806Z,77.92
2022-07-26T05:06:57.799Z,77.83
2022-07-26T05:07:57.813Z,78.03
2022-07-26T05:08:57.787Z,78.03
2022-07-26T05:09:57.759Z,78.03
2022-07-26T05:10:57.762Z,78.03
2022-07-26T05:11:57.738Z,78.03
2022-07-26T05:12:57.732Z,77.83
2022-07-26T05:13:57.722Z,77.62
2022-07-26T05:14:57.712Z,77.69
2022-07-26T05:15:57.685Z,77.52
2022-07-26T05:16:57.765Z,77.83
2022-07-26T05:17:58.666Z,77.72
2022-07-26T05:18:58.636Z,77.72
2022-07-26T05:20:01.313Z,78.03
2022-07-26T05:20:58.608Z,78.22
2022-07-26T05:21:57.608Z,77.59
2022-07-26T05:22:57.589Z,77.69
2022-07-26T05:23:57.583Z,77.89
2022-07-26T05:24:57.592Z,78.19
2022-07-26T05:25:57.580Z,78.29
2022-07-26T05:26:58.724Z,77.89
2022-07-26T05:27:57.529Z,78.19
2022-07-26T05:28:57.532Z,77.79
2022-07-26T05:29:57.530Z,78.22
2022-07-26T05:30:57.573Z,78.53
2022-07-26T05:31:57.493Z,78.42
2022-07-26T05:32:57.470Z,78.73
2022-07-26T05:33:57.482Z,78.93
2022-07-26T05:34:57.483Z,79.03
2022-07-26T05:35:57.447Z,78.83
2022-07-26T05:36:57.431Z,78.83
2022-07-26T05:37:57.418Z,78.53
2022-07-26T05:38:57.402Z,78.73
2022-07-26T05:39:57.409Z,78.63
2022-07-26T05:40:57.375Z,78.63
2022-07-26T05:41:57.364Z,78.73
2022-07-26T05:42:57.351Z,78.63
2022-07-26T05:43:57.355Z,78.73
2022-07-26T05:44:57.327Z,79.13
2022-07-26T05:45:57.355Z,78.93
2022-07-26T05:46:57.300Z,78.63
2022-07-26T05:47:57.295Z,79.03
2022-07-26T05:48:57.376Z,79.43
2022-07-26T05:49:57.287Z,79.23
2022-07-26T05:50:57.251Z,79.23
2022-07-26T05:52:01.162Z,79.03
2022-07-26T05:52:57.226Z,78.93
2022-07-26T05:53:57.232Z,79.33
2022-07-26T05:54:57.209Z,78.83
2022-07-26T05:55:57.200Z,79.13
2022-07-26T05:56:57.179Z,78.83
2022-07-26T05:57:57.136Z,78.93
2022-07-26T05:58:57.142Z,79.13
2022-07-26T05:59:57.152Z,79.13
2022-07-26T06:00:57.120Z,79.53
2022-07-26T06:02:04.230Z,79.23
2022-07-26T06:02:57.083Z,78.93
2022-07-26T06:03:59.894Z,78.93
2022-07-26T06:04:57.100Z,78.93
2022-07-26T06:05:57.067Z,79.13
2022-07-26T06:06:57.043Z,79.23
2022-07-26T06:07:57.022Z,79.13
2022-07-26T06:08:57.028Z,79.53
2022-07-26T06:09:57.011Z,79.63
2022-07-26T06:10:56.992Z,79.73
2022-07-26T06:11:57.002Z,79.73
2022-07-26T06:12:56.975Z,79.73
2022-07-26T06:13:56.987Z,79.83
2022-07-26T06:14:56.966Z,79.73
2022-07-26T06:15:56.940Z,79.43
2022-07-26T06:16:56.964Z,79.33
2022-07-26T06:17:56.903Z,79.29
2022-07-26T06:18:56.907Z,79.49
2022-07-26T06:19:56.914Z,79.29
2022-07-26T06:20:56.864Z,79.29
2022-07-26T06:21:57.876Z,78.79
2022-07-26T06:22:56.845Z,79.09
2022-07-26T06:23:56.833Z,78.99
2022-07-26T06:24:56.845Z,78.99
2022-07-26T06:25:56.810Z,78.89
2022-07-26T06:26:58.154Z,78.79
2022-07-26T06:27:57.782Z,79.09
2022-07-26T06:28:56.771Z,79.09
2022-07-26T06:29:56.776Z,78.99
2022-07-26T06:30:56.740Z,79.09
2022-07-26T06:31:56.843Z,78.89
2022-07-26T06:32:56.723Z,79.09
2022-07-26T06:33:56.725Z,78.99
2022-07-26T06:34:56.731Z,78.99
2022-07-26T06:35:56.688Z,79.09
2022-07-26T06:36:56.688Z,79.19
2022-07-26T06:37:56.654Z,79.29
2022-07-26T06:38:56.629Z,79.09
2022-07-26T06:39:56.665Z,78.99
2022-07-26T06:40:56.619Z,79.29
2022-07-26T06:41:56.605Z,79.39
2022-07-26T06:42:59.995Z,79.49
2022-07-26T06:43:57.596Z,79.69
2022-07-26T06:44:56.572Z,79.69
2022-07-26T06:45:56.627Z,79.80
2022-07-26T06:46:56.617Z,79.69
2022-07-26T06:47:56.536Z,79.80
2022-07-26T06:48:56.873Z,79.49
2022-07-26T06:49:56.509Z,79.69
2022-07-26T06:50:56.480Z,79.80
2022-07-26T06:51:56.482Z,79.60
2022-07-26T06:52:56.476Z,79.09
2022-07-26T06:53:56.455Z,79.29
2022-07-26T06:54:56.455Z,79.49
2022-07-26T06:55:56.439Z,79.49
2022-07-26T06:56:56.412Z,79.49
2022-07-26T06:57:56.398Z,79.80
2022-07-26T06:58:56.489Z,79.99
2022-07-26T06:59:56.402Z,80.19
2022-07-26T07:00:56.379Z,79.99
2022-07-26T07:02:00.074Z,79.49
2022-07-26T07:02:56.352Z,79.90
2022-07-26T07:03:56.337Z,79.55
2022-07-26T07:04:56.400Z,79.55
2022-07-26T07:05:56.311Z,79.55
2022-07-26T07:06:56.792Z,79.05
2022-07-26T07:07:56.287Z,79.16
2022-07-26T07:08:56.263Z,79.16
2022-07-26T07:09:56.249Z,79.55
2022-07-26T07:10:56.229Z,79.05
2022-07-26T07:12:03.435Z,79.36
2022-07-26T07:12:57.197Z,79.55
2022-07-26T07:13:56.194Z,79.36
2022-07-26T07:14:56.201Z,79.05
2022-07-26T07:15:56.169Z,79.25
2022-07-26T07:16:56.193Z,79.46
2022-07-26T07:17:56.150Z,79.75
2022-07-26T07:18:56.133Z,79.66
2022-07-26T07:19:56.141Z,79.66
2022-07-26T07:20:56.120Z,79.86
2022-07-26T07:21:56.103Z,79.66
2022-07-26T07:22:56.083Z,79.55
2022-07-26T07:23:56.078Z,79.42
2022-07-26T07:24:56.071Z,79.42
2022-07-26T07:25:56.059Z,79.52
2022-07-26T07:26:56.018Z,80.02
2022-07-26T07:27:56.029Z,79.92
2022-07-26T07:28:55.999Z,79.82
2022-07-26T07:29:56.135Z,79.62
2022-07-26T07:30:55.982Z,79.62
2022-07-26T07:31:56.524Z,79.92
2022-07-26T07:32:55.958Z,79.66
2022-07-26T07:33:55.948Z,79.96
2022-07-26T07:34:55.925Z,80.26
2022-07-26T07:35:55.927Z,80.16
2022-07-26T07:36:55.910Z,80.32
2022-07-26T07:37:55.922Z,79.82
2022-07-26T07:38:55.877Z,80.02
2022-07-26T07:39:55.899Z,79.52
2022-07-26T07:40:55.866Z,79.62
2022-07-26T07:41:55.847Z,79.72
2022-07-26T07:42:55.849Z,80.02
2022-07-26T07:43:55.807Z,80.02
2022-07-26T07:44:55.805Z,79.88
2022-07-26T07:45:55.812Z,79.38
2022-07-26T07:46:55.842Z,79.18
2022-07-26T07:47:55.773Z,79.32
2022-07-26T07:48:55.790Z,79.68
2022-07-26T07:49:55.734Z,79.72
2022-07-26T07:50:55.727Z,79.72
2022-07-26T07:51:55.719Z,79.62
2022-07-26T07:52:55.693Z,79.88
2022-07-26T07:53:56.410Z,79.58
2022-07-26T07:55:11.697Z,79.78
2022-07-26T07:55:56.696Z,79.52
2022-07-26T07:56:55.661Z,79.72
2022-07-26T07:57:55.640Z,79.88
2022-07-26T07:58:55.631Z,79.58
2022-07-26T07:59:55.605Z,79.68
2022-07-26T08:00:55.660Z,79.88
2022-07-26T08:01:55.599Z,79.68
2022-07-26T08:02:55.570Z,79.14
2022-07-26T08:03:55.618Z,79.04
2022-07-26T08:04:55.547Z,78.44
2022-07-26T08:05:55.559Z,79.04
2022-07-26T08:06:55.556Z,78.44
2022-07-26T08:07:55.519Z,78.54
2022-07-26T08:08:55.499Z,78.74
2022-07-26T08:09:55.494Z,78.74
2022-07-26T08:10:55.486Z,78.54
2022-07-26T08:11:55.460Z,78.94
2022-07-26T08:12:55.448Z,78.34
2022-07-26T08:13:55.558Z,79.08
2022-07-26T08:14:55.439Z,79.08
2022-07-26T08:15:55.803Z,79.08
2022-07-26T08:16:55.419Z,78.88
2022-07-26T08:17:55.399Z,78.88
2022-07-26T08:18:57.855Z,79.38
2022-07-26T08:19:59.947Z,79.68
2022-07-26T08:20:56.360Z,79.48
2022-07-26T08:21:55.343Z,79.58
2022-07-26T08:22:55.324Z,80.08
2022-07-26T08:23:55.320Z,79.78
2022-07-26T08:24:55.332Z,79.38
2022-07-26T08:25:57.349Z,78.98
2022-07-26T08:26:55.288Z,79.28
2022-07-26T08:28:30.642Z,79.38
2022-07-26T08:29:00.126Z,79.48
2022-07-26T08:29:55.239Z,79.58
2022-07-26T08:30:55.248Z,79.68
2022-07-26T08:31:55.338Z,79.08
2022-07-26T08:32:55.199Z,78.94
2022-07-26T08:33:55.198Z,79.44
2022-07-26T08:34:55.182Z,79.54
2022-07-26T08:35:58.597Z,79.54
2022-07-26T08:37:16.109Z,78.64
2022-07-26T08:37:56.146Z,78.64
2022-07-26T08:38:55.130Z,78.74
2022-07-26T08:39:55.120Z,78.50
2022-07-26T08:40:55.104Z,78.00
2022-07-26T08:41:55.101Z,77.70
2022-07-26T08:42:55.076Z,77.67
2022-07-26T08:43:55.048Z,77.36
2022-07-26T08:44:55.055Z,77.06
2022-07-26T08:45:55.056Z,76.93
2022-07-26T08:46:55.046Z,77.53
2022-07-26T08:48:16.650Z,77.09
2022-07-26T08:48:56.135Z,75.99
2022-07-26T08:49:54.979Z,75.09
2022-07-26T08:50:54.985Z,75.93
2022-07-26T08:51:55.038Z,76.53
2022-07-26T08:52:54.933Z,76.23
2022-07-26T08:53:57.888Z,76.13
2022-07-26T08:54:55.938Z,76.17
2022-07-26T08:56:06.926Z,76.46
2022-07-26T08:56:55.902Z,77.26
2022-07-26T08:57:54.887Z,77.06
2022-07-26T08:58:54.909Z,77.26
2022-07-26T08:59:54.872Z,77.76
2022-07-26T09:00:54.898Z,77.47
2022-07-26T09:01:54.824Z,77.67
2022-07-26T09:02:54.823Z,77.23
2022-07-26T09:03:54.860Z,77.43
2022-07-26T09:04:54.904Z,76.73
2022-07-26T09:05:54.795Z,76.83
2022-07-26T09:06:54.772Z,77.13
2022-07-26T09:07:54.745Z,76.73
2022-07-26T09:08:54.733Z,76.17
2022-07-26T09:09:54.734Z,76.17
2022-07-26T09:10:54.723Z,76.37
2022-07-26T09:11:54.693Z,76.06
2022-07-26T09:12:54.699Z,76.46
2022-07-26T09:13:54.684Z,77.17
2022-07-26T09:14:54.659Z,76.46
2022-07-26T09:15:54.686Z,76.26
2022-07-26T09:16:54.646Z,76.17
2022-07-26T09:17:54.612Z,76.06
2022-07-26T09:18:54.626Z,76.06
2022-07-26T09:19:54.617Z,76.17
2022-07-26T09:20:54.605Z,76.43
2022-07-26T09:21:54.584Z,75.93
2022-07-26T09:22:54.565Z,76.23
2022-07-26T09:23:54.557Z,75.83
2022-07-26T09:24:54.563Z,75.43
2022-07-26T09:25:54.534Z,75.43
2022-07-26T09:26:54.519Z,75.33
2022-07-26T09:27:54.524Z,75.52
2022-07-26T09:28:54.484Z,75.23
2022-07-26T09:29:55.514Z,75.23
2022-07-26T09:30:54.526Z,75.23
2022-07-26T09:31:54.488Z,74.83
2022-07-26T09:32:58.791Z,75.52
2022-07-26T09:33:54.419Z,76.03
2022-07-26T09:34:58.301Z,75.26
2022-07-26T09:35:54.415Z,75.67
2022-07-26T09:36:54.379Z,76.23
2022-07-26T09:37:54.372Z,75.43
2022-07-26T09:38:54.351Z,75.43
2022-07-26T09:39:54.340Z,74.63
2022-07-26T09:40:54.345Z,75.19
2022-07-26T09:42:17.538Z,74.99
2022-07-26T09:42:55.315Z,75.39
2022-07-26T09:43:54.410Z,75.39
2022-07-26T09:44:54.271Z,75.05
2022-07-26T09:45:54.288Z,74.55
2022-07-26T09:46:54.332Z,73.96
2022-07-26T09:47:54.233Z,74.19
2022-07-26T09:49:11.257Z,74.36
2022-07-26T09:49:55.252Z,75.26
2022-07-26T09:50:54.315Z,74.92
2022-07-26T09:51:54.250Z,74.92
2022-07-26T09:52:54.196Z,74.72
2022-07-26T09:53:54.151Z,73.09
2022-07-26T09:54:54.159Z,73.58
2022-07-26T09:55:54.274Z,72.49
2022-07-26T09:56:54.121Z,72.45
2022-07-26T09:57:54.125Z,71.45
2022-07-26T09:58:54.127Z,71.86
2022-07-26T09:59:54.091Z,71.45
2022-07-26T10:00:57.633Z,72.22
2022-07-26T10:01:55.127Z,71.82
2022-07-26T10:02:54.075Z,69.32
2022-07-26T10:03:54.045Z,69.02
2022-07-26T10:04:54.020Z,69.32
2022-07-26T10:05:54.033Z,68.13
2022-07-26T10:06:54.012Z,67.63
2022-07-26T10:07:53.981Z,68.23
2022-07-26T10:08:54.020Z,67.10
2022-07-26T10:09:53.974Z,67.90
2022-07-26T10:10:53.975Z,68.99
2022-07-26T10:11:54.365Z,67.83
2022-07-26T10:12:53.923Z,68.33
2022-07-26T10:13:53.917Z,66.83
2022-07-26T10:14:53.903Z,66.43
2022-07-26T10:15:53.941Z,66.93
2022-07-26T10:16:53.874Z,66.73
2022-07-26T10:17:54.168Z,65.61
2022-07-26T10:18:53.848Z,64.41
2022-07-26T10:19:53.823Z,64.31
2022-07-26T10:20:53.833Z,65.20
2022-07-26T10:21:53.804Z,64.97
2022-07-26T10:22:53.792Z,65.08
2022-07-26T10:23:53.783Z,65.01
2022-07-26T10:24:57.962Z,66.00
2022-07-26T10:25:53.754Z,66.47
2022-07-26T10:26:53.768Z,65.27
2022-07-26T10:27:53.724Z,64.75
2022-07-26T10:28:53.711Z,64.22
2022-07-26T10:29:53.702Z,62.82
2022-07-26T10:30:53.760Z,61.83
2022-07-26T10:31:53.686Z,63.42
2022-07-26T10:32:53.656Z,63.22
2022-07-26T10:33:53.657Z,63.22
2022-07-26T10:34:53.643Z,63.52
2022-07-26T10:35:53.633Z,64.22
2022-07-26T10:36:57.541Z,63.92
2022-07-26T10:37:53.588Z,65.08
2022-07-26T10:38:53.592Z,64.69
2022-07-26T10:39:53.573Z,62.26
2022-07-26T10:40:53.573Z,62.86
2022-07-26T10:41:53.547Z,63.06
2022-07-26T10:42:53.519Z,62.37
2022-07-26T10:43:53.513Z,61.37
2022-07-26T10:44:53.499Z,63.26
2022-07-26T10:45:53.490Z,61.17
2022-07-26T10:46:53.548Z,60.97
2022-07-26T10:47:53.473Z,61.57
2022-07-26T10:48:53.485Z,60.77
2022-07-26T10:49:53.462Z,61.30
2022-07-26T10:50:53.429Z,61.93
2022-07-26T10:51:53.491Z,62.65
2022-07-26T10:52:53.422Z,61.96
2022-07-26T10:53:53.400Z,62.85
2022-07-26T10:54:53.359Z,63.58
2022-07-26T10:56:01.120Z,61.69
2022-07-26T10:56:53.336Z,60.82
2022-07-26T10:57:53.342Z,60.92
2022-07-26T10:58:53.307Z,61.25
2022-07-26T10:59:56.190Z,62.34
2022-07-26T11:00:53.296Z,62.84
2022-07-26T11:01:53.348Z,63.64
2022-07-26T11:02:53.317Z,64.14
2022-07-26T11:03:53.275Z,63.84
2022-07-26T11:04:53.244Z,63.34
2022-07-26T11:05:53.240Z,64.24
2022-07-26T11:06:53.208Z,63.84
2022-07-26T11:07:53.209Z,64.14
2022-07-26T11:08:53.675Z,63.94
2022-07-26T11:09:53.221Z,64.74
2022-07-26T11:10:53.281Z,65.04
2022-07-26T11:11:54.166Z,65.04
2022-07-26T11:12:53.183Z,64.94
2022-07-26T11:13:53.137Z,65.73
2022-07-26T11:14:53.122Z,64.44
2022-07-26T11:15:53.131Z,64.71
2022-07-26T11:16:53.100Z,64.71
2022-07-26T11:17:53.088Z,65.17
2022-07-26T11:18:54.080Z,63.68
2022-07-26T11:19:53.038Z,62.78
2022-07-26T11:20:53.059Z,60.86
2022-07-26T11:21:53.017Z,61.85
2022-07-26T11:22:53.019Z,61.53
2022-07-26T11:23:53.000Z,62.02
2022-07-26T11:24:52.988Z,61.63
2022-07-26T11:25:52.989Z,59.01
2022-07-26T11:26:52.955Z,58.91
2022-07-26T11:27:52.953Z,58.51
2022-07-26T11:28:52.953Z,59.81
2022-07-26T11:29:52.914Z,59.74
2022-07-26T11:30:52.994Z,58.64
2022-07-26T11:31:58.811Z,59.64
2022-07-26T11:32:53.889Z,60.53
2022-07-26T11:33:52.876Z,60.53
2022-07-26T11:34:52.847Z,60.66
2022-07-26T11:35:52.856Z,60.76
2022-07-26T11:36:52.909Z,60.86
2022-07-26T11:37:52.833Z,60.96
2022-07-26T11:38:52.797Z,61.46
2022-07-26T11:39:52.804Z,60.76
2022-07-26T11:40:52.813Z,60.99
2022-07-26T11:41:52.756Z,61.99
2022-07-26T11:42:52.759Z,61.49
2022-07-26T11:43:52.738Z,60.69
2022-07-26T11:44:52.755Z,61.19
2022-07-26T11:45:52.793Z,61.49
2022-07-26T11:46:52.809Z,60.39
2022-07-26T11:47:52.683Z,60.42
2022-07-26T11:48:52.737Z,61.25
2022-07-26T11:50:11.578Z,61.65
2022-07-26T11:50:53.697Z,61.85
2022-07-26T11:51:52.646Z,62.07
2022-07-26T11:52:52.692Z,62.57
2022-07-26T11:53:52.660Z,62.57
2022-07-26T11:54:52.638Z,62.57
2022-07-26T11:55:52.700Z,63.57
2022-07-26T11:56:53.594Z,63.57
2022-07-26T11:57:52.569Z,64.07
2022-07-26T11:58:52.872Z,64.57
2022-07-26T11:59:52.565Z,65.23
2022-07-26T12:00:52.566Z,66.13
2022-07-26T12:01:52.527Z,65.73
2022-07-26T12:02:55.947Z,65.04
2022-07-26T12:03:52.602Z,66.24
2022-07-26T12:04:52.624Z,64.54
2022-07-26T12:05:52.544Z,64.84
2022-07-26T12:06:52.447Z,64.81
2022-07-26T12:07:52.439Z,65.41
2022-07-26T12:08:56.107Z,65.20
2022-07-26T12:09:52.412Z,66.20
2022-07-26T12:10:52.396Z,64.51
2022-07-26T12:11:52.392Z,64.71
2022-07-26T12:12:52.366Z,64.24
2022-07-26T12:13:55.454Z,64.84
2022-07-26T12:14:52.368Z,65.83
2022-07-26T12:15:52.615Z,66.24
2022-07-26T12:16:52.341Z,66.33
2022-07-26T12:17:52.308Z,65.64
2022-07-26T12:18:52.317Z,65.83
2022-07-26T12:19:52.287Z,66.24
2022-07-26T12:20:55.452Z,65.61
2022-07-26T12:21:53.271Z,64.51
2022-07-26T12:22:52.275Z,64.90
2022-07-26T12:23:52.221Z,65.50
2022-07-26T12:24:52.208Z,65.20
2022-07-26T12:25:52.203Z,65.11
2022-07-26T12:26:52.238Z,65.20
2022-07-26T12:27:52.205Z,65.23
2022-07-26T12:28:52.178Z,65.14
2022-07-26T12:29:52.168Z,65.04
2022-07-26T12:30:52.175Z,65.34
2022-07-26T12:31:52.137Z,65.64
2022-07-26T12:32:52.119Z,65.70
2022-07-26T12:33:52.114Z,66.40
2022-07-26T12:34:52.110Z,64.21
2022-07-26T12:35:52.134Z,64.41
2022-07-26T12:36:52.086Z,64.64
2022-07-26T12:37:52.089Z,65.23
2022-07-26T12:38:52.058Z,65.04
2022-07-26T12:39:52.025Z,65.87
2022-07-26T12:40:52.018Z,65.87
2022-07-26T12:41:52.003Z,66.66
2022-07-26T12:42:55.899Z,65.94
2022-07-26T12:43:52.987Z,65.37
2022-07-26T12:44:51.968Z,64.44
2022-07-26T12:45:52.012Z,65.34
2022-07-26T12:46:52.101Z,66.13
2022-07-26T12:47:51.947Z,65.53
2022-07-26T12:48:55.524Z,65.14
2022-07-26T12:49:52.895Z,65.37
2022-07-26T12:50:51.905Z,65.56
2022-07-26T12:51:51.874Z,65.97